Tiempo atmosférico en la estación meteorológica de Caravaca de La Cruz, Murcia (643 m.)



Fecha
DESCASC
Temp. máxima en grados centígrados (hora)
DESCASC
Temp. mínima en grados centígrados (hora)
DESCASC
Temp. media en grados centígrados
DESCASC
Racha de viento máxima en m/sg (hora)
DESCASC
Velocidad máxima media en intervalos de 10 minutos(hora)
DESCASC
Precipitaciones diarias en mm
DESCASC
Precipitaciones de 00:00 a 06:00 en mm
DESCASC
Precipitaciones de 06:00 a 12:00 en mm
DESCASC
Precipitaciones de 12:00 a 18:00 en mm
DESCASC
Precipitaciones de 18:00 a 24:00 en mm
DESCASC
18-08-2019 38.6 (16:30) 18.7 (08:00) 28.6 8.33 (15:30) 4.72 (02:50) 0 0 0 0 0
17-08-2019 39.1 (16:30) 17.5 (07:50) 28.3 10 (15:40) 5.28 (15:00) 0 0 0 0 0
16-08-2019 35.5 (16:00) 15.4 (07:30) 25.4 9.17 (17:30) 4.72 (21:40) 0 0 0 0 0
15-08-2019 35.2 (15:50) 16.6 (00:00) 25.9 8.89 (16:50) 4.72 (16:50) 0 0 0 0 0
14-08-2019 33.6 (15:40) 16 (00:00) 24.8 7.5 (15:00) 4.17 (17:50) 0 0 0 0 0
13-08-2019 29.7 (15:20) 19.7 (00:00) 24.7 9.72 (15:20) 5.28 (14:40) 0 0 0 0 0
12-08-2019 33.5 (15:50) 15.4 (00:00) 24.4 8.89 (19:10) 5 (19:10) 0 0 0 0 0
11-08-2019 35.5 (15:40) 19 (00:00) 27.3 7.22 (16:10) 3.61 (18:30) 0 0 0 0 0
10-08-2019 39.2 (17:00) 18.8 (00:00) 29 8.89 (17:20) 4.72 (02:20) 0 0 0 0 0
09-08-2019 40.9 (17:40) 17.7 (00:00) 29.3 8.06 (13:30) 4.17 (07:10) 0 0 0 0 0
08-08-2019 37.9 (15:40) 18.2 (00:00) 28.1 9.17 (17:30) 5 (17:20) 0 0 0 0 0
07-08-2019 38.9 (13:50) 17.7 (00:00) 28.3 8.33 (14:50) 4.17 (14:50) 0 0 0 0 0
06-08-2019 39 (15:20) 18.3 (00:00) 28.6 10.83 (19:10) 5 (19:10) 0 0 0 0 0
05-08-2019 36.3 (15:50) 18.9 (00:00) 27.6 9.17 (17:50) 5.56 (17:50) 0 0 0 0 0
04-08-2019 36.8 (15:40) 18.8 (00:00) 27.8 9.17 (17:00) 4.72 (17:00) 0 0 0 0 0
03-08-2019 34.2 (15:20) 18.6 (00:00) 26.4 9.17 (17:10) 4.72 (17:20) 0 0 0 0 0
02-08-2019 34.6 (13:50) 17.3 (00:00) 25.9 7.78 (15:20) 4.44 (15:20) 0 0 0 0 0
01-08-2019 35 (17:10) 14.7 (00:00) 24.8 6.67 (07:50) 4.72 (06:00) 0.2 0 0 0 0.2
31-07-2019 28.7 (16:00) 18.5 (00:00) 23.6 8.61 (11:30) 5 (11:30) 0 0 0 0 0
30-07-2019 36.3 (15:10) 16.9 (00:00) 26.6 10.83 (16:20) 6.11 (17:50) 0 0 0 0 0
29-07-2019 34.6 (15:10) 15.8 (00:00) 25.2 8.61 (17:30) 3.89 (17:40) 0 0 0 0 0
28-07-2019 33.8 (16:00) 18.1 (00:00) 25.9 9.17 (15:40) 4.72 (18:30) 0 0 0 0 0
27-07-2019 33.4 (13:20) 16.8 (00:00) 25.1 13.33 (17:20) 6.94 (15:30) 0 0 0 0 0
26-07-2019 38.2 (15:50) 17.9 (00:00) 28.1 -- (--) -- (--) 0 0 0 0 0
25-07-2019 36.9 (16:20) 16.3 (00:00) 26.6 9.72 (17:30) 5.28 (17:40) 0 0 0 0 0
24-07-2019 37.2 (16:10) 15.8 (00:00) 26.5 10 (15:00) 5.56 (15:40) 0 0 0 0 0
23-07-2019 35.9 (15:30) 15.7 (00:00) 25.8 10.28 (16:30) 5.56 (15:40) 0 0 0 0 0
22-07-2019 34.1 (16:00) 16.2 (00:00) 25.1 8.89 (16:30) 5 (16:10) 0 0 0 0 0
21-07-2019 34.3 (16:00) 16.1 (00:00) 25.2 8.89 (16:40) 4.44 (19:00) 0 0 0 0 0

Gráficas

Temp. máximas Temp. mínimas Temp. medias Precipitaciones Rachas de viento máximas Velocidades máximas media en intervalos de 10 minutos

Datos horarios

Fecha y hora oficial Temperatura (ºC) Velocidad del viento (km/h) Dirección del viento Racha (km/h) Dirección de racha Precipitación (mm) Presión (hPa) Tendencia (hPa) Humedad (%)
2019-08-19 23:00:00 23.3 6 Nordeste 15 Nordeste 0 943 1.9 77
2019-08-19 22:00:00 24.7 4 Nordeste 15 Este 0 942.4 1.6 64
2019-08-19 21:00:00 26.4 6 Nordeste 19 Nordeste 0 941.7 1.3 54
2019-08-19 20:00:00 28.8 7 Nordeste 26 Nordeste 0 941.1 0.7 43
2019-08-19 19:00:00 30.6 13 Este 30 Nordeste 0 940.8 0.1 38
2019-08-19 18:00:00 32.3 15 Este 38 Este 0 940.4 -0.7 37
2019-08-19 17:00:00 34.1 16 Este 36 Este 0 940.4 -1.2 29
2019-08-19 16:00:00 35.8 17 Este 34 Sudeste 0 940.7 -1.6 20
2019-08-19 15:00:00 36.1 17 Este 33 Este 0 941.1 -1.4 16
2019-08-19 14:00:00 36 8 Este 21 Este 0 941.6 -0.7 14
2019-08-19 13:00:00 35.4 8 Este 19 Este 0 942.3 0.2 16
2019-08-19 12:00:00 33.6 10 Este 18 Este 0 942.5 0.5 19
2019-08-19 11:00:00 32.9 3 Este 10 Sudeste 0 942.3 0.7 21
2019-08-19 10:00:00 28.4 2 Norte 18 Oeste 0 942.1 0.8 29
2019-08-19 09:00:00 23.4 9 Oeste 14 Oeste 0 942 0.8 38
2019-08-19 08:00:00 20 5 Noroeste 24 Sudoeste 0 941.6 0.3 48
2019-08-19 07:00:00 20.4 15 Oeste 22 Oeste 0 941.3 0 44
2019-08-19 06:00:00 21 12 Oeste 18 Oeste 0 941.2 -0.3 42
2019-08-19 05:00:00 19.5 7 Oeste 13 Oeste 0 941.3 -0.4 47
2019-08-19 04:00:00 19.6 4 Oeste 10 Sudoeste 0 941.3 -0.4 50
2019-08-19 03:00:00 20.8 3 Oeste 16 Oeste 0 941.5 0.3 47
2019-08-19 02:00:00 22.9 10 Oeste 14 Oeste 0 941.7 0.6 37
2019-08-19 01:00:00 24.3 3 Nordeste 22 Oeste 0 941.7 1.3 35
2019-08-19 00:00:00 26.6 13 Sudoeste 23 Oeste 0 941.2 1.4 29
2019-08-18 23:00:00 27.6 6 Sudoeste 21 Sudoeste 0 941.1 1.9 29
2019-08-18 22:00:00 28.7 11 Sudoeste 18 Sudoeste 0 940.4 1 26
2019-08-18 21:00:00 30.4 12 Sudoeste 24 Oeste 0 939.8 0.5 22
2019-08-18 20:00:00 33 10 Sudoeste 26 Sur 0 939.2 -0.2 17
2019-08-18 19:00:00 34.4 11 Sur 24 Sur 0 939.4 -0.2 16
2019-08-18 18:00:00 36.2 12 Sur 28 Sur 0 939.3 -0.7 13
2019-08-18 17:00:00 37.6 13 Sur 28 Sudeste 0 939.4 -1 15
2019-08-18 16:00:00 37.7 12 Este 30 Este 0 939.6 -1.4 18
2019-08-18 15:00:00 37.1 13 Nordeste 29 Nordeste 0 940 -1.4 15
2019-08-18 14:00:00 36.8 12 Este 23 Este 0 940.4 -1 17
2019-08-18 13:00:00 36.3 12 Este 21 Este 0 941 -0.4 18
2019-08-18 12:00:00 34.8 9 Nordeste 17 Nordeste 0 941.4 0.1 19
2019-08-18 11:00:00 32.9 7 Este 13 Nordeste 0 941.4 0.5 20
2019-08-18 10:00:00 28.6 4 Nordeste 16 Oeste 0 941.4 0.6 26
2019-08-18 09:00:00 23.3 12 Oeste 20 Oeste 0 941.3 0.5 34
2019-08-18 08:00:00 18.7 4 Oeste 20 Oeste 0 940.9 0 47
2019-08-18 07:00:00 20 8 Oeste 14 Oeste 0 940.8 -0.6 40
2019-08-18 06:00:00 21.4 5 Norte 23 Oeste 0 940.8 -0.8 37
2019-08-18 05:00:00 21.9 13 Sudoeste 23 Sudoeste 0 940.9 -1 35
2019-08-18 04:00:00 23 13 Sudoeste 22 Sudoeste 0 941.4 -0.8 32
2019-08-18 03:00:00 23.3 15 Sudoeste 24 Oeste 0 941.6 -0.5 32
2019-08-18 02:00:00 23.8 7 Sudoeste 13 Sudoeste 0 941.9 0 32
2019-08-18 01:00:00 25.7 9 Sudoeste 18 Sudoeste 0 942.2 0.7 28
2019-08-18 00:00:00 28 7 Sudoeste 20 Oeste 0 942.1 1.2 25
2019-08-17 23:00:00 28.8 11 Oeste 21 Sudoeste 0 941.9 1.1 23
2019-08-17 22:00:00 29.9 12 Oeste 22 Oeste 0 941.5 0.6 20
2019-08-17 21:00:00 31.2 9 Oeste 19 Sur 0 940.9 -0.3 19
2019-08-17 20:00:00 33.3 9 Sur 31 Sur 0 940.8 -0.5 18
2019-08-17 19:00:00 35 17 Sur 36 Sudoeste 0 940.9 -0.9 16
2019-08-17 18:00:00 36.3 18 Sur 32 Sudoeste 0 941.2 -1.1 17
2019-08-17 17:00:00 38.1 11 Sur 26 Sudeste 0 941.3 -1.7 15
2019-08-17 16:00:00 38.5 8 Sudeste 36 Nordeste 0 941.8 -1.8 15
2019-08-17 15:00:00 36.5 19 Este 31 Este 0 942.3 -1.9 20
2019-08-17 14:00:00 36.1 12 Este 23 Este 0 943 -1.4 21
2019-08-17 13:00:00 35.1 9 Este 19 Sudeste 0 943.6 -0.9 23
2019-08-17 12:00:00 33.4 7 Este 13 Este 0 944.2 -0.2 27
2019-08-17 11:00:00 30.9 5 Sudeste 9 Este 0 944.4 0.4 30
2019-08-17 10:00:00 27.1 5 Este 8 Este 0 944.5 0.8 39
2019-08-17 09:00:00 22.2 2 Oeste 4 Noroeste 0 944.4 1.2 54
2019-08-17 08:00:00 17.6 2 Noroeste 7 Oeste 0 944 0.5 66
2019-08-17 07:00:00 18.8 3 Noroeste 14 Oeste 0 943.7 -0.3 60
2019-08-17 06:00:00 23.1 8 Oeste 20 Oeste 0 943.2 -1.1 43
2019-08-17 05:00:00 20.3 8 Oeste 13 Oeste 0 943.5 -1 52
2019-08-17 04:00:00 19.6 5 Oeste 12 Oeste 0 944 -0.5 54
2019-08-17 03:00:00 20.8 2 Sudoeste 15 Oeste 0 944.3 -0.2 49
2019-08-17 02:00:00 20.7 3 Oeste 13 Oeste 0 944.5 -0.1 52
2019-08-17 01:00:00 23.6 8 Sudoeste 22 Sudoeste 0 944.5 0.3 42
2019-08-17 00:00:00 24.7 12 Sudoeste 26 Sudoeste 0 944.5 0.9 39
2019-08-16 23:00:00 26.7 14 Oeste 24 Oeste 0 944.6 1.6 32
2019-08-16 22:00:00 27.3 14 Oeste 28 Oeste 0 944.2 1.6 30
2019-08-16 21:00:00 28.9 10 Oeste 26 Sudoeste 0 943.6 0.9 29
2019-08-16 20:00:00 30.9 14 Sudoeste 29 Sur 0 943 -0.3 27
2019-08-16 19:00:00 33.7 13 Sur 27 Sur 0 942.6 -1.1 24
2019-08-16 18:00:00 35.2 9 Sudeste 33 Nordeste 0 942.7 -1.7 20
2019-08-16 17:00:00 34.7 14 Este 29 Este 0 943.3 -1.6 23
2019-08-16 16:00:00 35.5 14 Este 28 Este 0 943.7 -1.8 22
2019-08-16 15:00:00 34.4 14 Este 24 Este 0 944.4 -1.6 25
2019-08-16 14:00:00 33.1 6 Nordeste 17 Sudeste 0 944.9 -1.1 28
2019-08-16 13:00:00 32.9 7 Este 19 Nordeste 0 945.5 -0.9 24
2019-08-16 12:00:00 32.1 7 Sur 21 Oeste 0 946 -0.3 21
2019-08-16 11:00:00 29.6 7 Sur 15 Sur 0 946 0.3 26
2019-08-16 10:00:00 25.5 5 Este 8 Este 0 946.4 1 42
2019-08-16 09:00:00 20.7 0 Calma 5 Sudoeste 0 946.3 1.2 53
2019-08-16 08:00:00 16.1 5 Sudoeste 10 Sudoeste 0 945.7 0.6 67
2019-08-16 07:00:00 15.7 4 Oeste 7 Sudoeste 0 945.4 0.3 68
2019-08-16 06:00:00 17.3 4 Oeste 10 Sudoeste 0 945.1 -0.2 56
2019-08-16 05:00:00 16.8 3 Noroeste 6 Oeste 0 945.1 -0.2 60
2019-08-16 04:00:00 18.2 3 Noroeste 16 Oeste 0 945.1 -0.5 53
2019-08-16 03:00:00 20 6 Sudoeste 12 Oeste 0 945.3 -0.3 46
2019-08-16 02:00:00 21.8 8 Oeste 13 Oeste 0 945.3 -0.2 40
2019-08-16 01:00:00 23.4 5 Sudoeste 17 Oeste 0 945.6 0.5 37
2019-08-16 00:00:00 24.7 13 Oeste 25 Oeste 0 945.6 1.1 35
2019-08-15 23:00:00 26 12 Oeste 24 Oeste 0 945.5 1.5 31
2019-08-15 22:00:00 26.9 13 Oeste 23 Oeste 0 945.1 1.5 27
2019-08-15 21:00:00 28.4 9 Sudoeste 25 Oeste 0 944.5 1 26
2019-08-15 20:00:00 30.7 13 Sudoeste 27 Sur 0 944 0.5 23
2019-08-15 19:00:00 32.8 15 Sur 31 Sudoeste 0 943.6 -0.4 20
2019-08-15 18:00:00 34.6 12 Sur 31 Nordeste 0 943.5 -1.1 18
2019-08-15 17:00:00 34 15 Este 32 Este 0 943.5 -1.5 22
2019-08-15 16:00:00 34.5 9 Este 24 Nordeste 0 944 -1.6 24
2019-08-15 15:00:00 33.4 12 Este 25 Este 0 944.6 -1.5 27
2019-08-15 14:00:00 32.7 10 Este 19 Nordeste 0 945 -1.2 35
2019-08-15 13:00:00 31.1 9 Este 19 Este 0 945.6 -0.6 38
2019-08-15 12:00:00 29.7 7 Este 14 Este 0 946.1 -0.1 41
2019-08-15 11:00:00 27.2 6 Este 13 Este 0 946.2 0.5 48
2019-08-15 10:00:00 25.2 4 Sudeste 8 Sudeste 0 946.2 0.8 58
2019-08-15 09:00:00 22.2 2 Este 8 Oeste 0 946.2 1.1 56
2019-08-15 08:00:00 17.6 7 Oeste 11 Oeste 0 945.7 0.6 69
2019-08-15 07:00:00 17.8 0 Calma 14 Oeste 0 945.4 0.2 66
2019-08-15 06:00:00 18.3 6 Oeste 14 Oeste 0 945.1 -0.2 64
2019-08-15 05:00:00 17.5 3 Noroeste 6 Sudoeste 0 945.1 -0.6 68
2019-08-15 04:00:00 19 3 Oeste 17 Oeste 0 945.2 -0.6 62
2019-08-15 03:00:00 20.9 11 Oeste 17 Noroeste 0 945.3 -0.6 55
2019-08-15 02:00:00 21.1 10 Oeste 14 Oeste 0 945.7 0.1 53
2019-08-15 01:00:00 22.3 7 Oeste 13 Oeste 0 945.8 0.7 50
2019-08-15 00:00:00 24 9 Oeste 20 Oeste 0 945.9 1.2 52
2019-08-14 23:00:00 25.2 9 Oeste 18 Oeste 0 945.6 1.3 47
2019-08-14 22:00:00 26.4 9 Oeste 20 Oeste 0 945.1 1 43
2019-08-14 21:00:00 27.8 6 Sudoeste 22 Sur 0 944.7 0.4 37
2019-08-14 20:00:00 29.9 11 Sudoeste 26 Sur 0 944.3 0 34
2019-08-14 19:00:00 30.9 7 Sudeste 21 Sudeste 0 944.1 -0.7 37
2019-08-14 18:00:00 31 12 Este 27 Este 0 944.3 -0.9 35
2019-08-14 17:00:00 32.4 12 Este 22 Este 0 944.3 -1.5 31
2019-08-14 16:00:00 31.2 9 Nordeste 23 Este 0 944.8 -1.5 35
2019-08-14 15:00:00 31.8 11 Este 27 Este 0 945.2 -1.6 36
2019-08-14 14:00:00 31.6 10 Este 21 Este 0 945.8 -1.2 36
2019-08-14 13:00:00 31 7 Este 16 Este 0 946.3 -0.8 39
2019-08-14 12:00:00 29.2 9 Este 19 Sudoeste 0 946.8 -0.2 44
2019-08-14 11:00:00 27.1 8 Sudoeste 19 Sudoeste 0 947 0 51
2019-08-14 10:00:00 23.6 9 Sudoeste 17 Sudoeste 0 947.1 0.3 63
2019-08-14 09:00:00 20.4 7 Sudoeste 13 Sudoeste 0 947 0.7 77
2019-08-14 08:00:00 17.5 2 Oeste 7 Oeste 0 947 0.8 85
2019-08-14 07:00:00 16.2 3 Sudoeste 8 Noroeste 0 946.8 0.6 89
2019-08-14 06:00:00 16.1 4 Oeste 7 Oeste 0 946.3 -0.2 89
2019-08-14 05:00:00 16.3 3 Oeste 5 Sudoeste 0 946.2 -0.4 88
2019-08-14 04:00:00 17.1 2 Noroeste 6 Noroeste 0 946.2 -0.4 87
2019-08-14 03:00:00 17.6 3 Noroeste 5 Noroeste 0 946.5 -0.2 85
2019-08-14 02:00:00 18.7 2 Noroeste 6 Sudoeste 0 946.6 0 80
2019-08-14 01:00:00 20.4 0 Calma 5 Nordeste 0 946.6 0.9 74
2019-08-14 00:00:00 21.6 4 Nordeste 12 Este 0 946.7 1.7 70
2019-08-13 23:00:00 22.1 7 Nordeste 14 Este 0 946.6 2.5 67
2019-08-13 22:00:00 23.2 4 Este 14 Este 0 945.7 1.6 62
2019-08-13 21:00:00 24.1 6 Este 14 Sudeste 0 945 1.1 60
2019-08-13 20:00:00 25.5 8 Sudeste 22 Este 0 944.1 0.1 55
2019-08-13 19:00:00 26.2 11 Este 26 Este 0 944.1 -0.3 52
2019-08-13 18:00:00 28.1 10 Este 29 Este 0 943.9 -0.9 44
2019-08-13 17:00:00 28.1 12 Este 28 Este 0 944 -1.2 43
2019-08-13 16:00:00 28.6 12 Este 35 Nordeste 0 944.4 -1.2 43
2019-08-13 15:00:00 29.2 17 Este 30 Este 0 944.8 -1.2 42
2019-08-13 14:00:00 27.8 15 Este 26 Este 0 945.2 -0.7 43
2019-08-13 13:00:00 27.3 10 Este 26 Este 0 945.6 -0.3 46
2019-08-13 12:00:00 26.8 10 Este 23 Este 0 946 0.3 49
2019-08-13 11:00:00 23.8 9 Este 16 Este 0 945.9 0.6 57
2019-08-13 10:00:00 22.7 4 Sur 11 Sudeste 0 945.9 1.2 62
2019-08-13 09:00:00 21.4 4 Sudeste 9 Sur 0 945.7 1.5 67
2019-08-13 08:00:00 19.8 3 Noroeste 7 Sudeste 0 945.3 0.8 81
2019-08-13 07:00:00 20.4 3 Norte 9 Norte 0 944.7 -0.3 78
2019-08-13 06:00:00 20.5 4 Norte 9 Nordeste 0 944.2 -0.8 79
2019-08-13 05:00:00 21 5 Norte 11 Nordeste 0 944.5 -0.8 78
2019-08-13 04:00:00 21.5 5 Nordeste 15 Este 0 945 -0.1 76
2019-08-13 03:00:00 21.6 10 Este 22 Este 0 945 -0.1 77
2019-08-13 02:00:00 21.9 6 Este 14 Sudeste 0 945.3 1 76
2019-08-13 01:00:00 22.1 3 Nordeste 15 Este 0 945.1 2 78
2019-08-13 00:00:00 22.5 6 Este 19 Este 0 945.1 3 77
2019-08-12 23:00:00 23 6 Nordeste 16 Nordeste 0 944.3 3 72
2019-08-12 22:00:00 24.8 7 Oeste 14 Sudoeste 0 943.1 2.4 56
2019-08-12 21:00:00 26.1 5 Sur 20 Este 0 942.1 1.3 50
2019-08-12 20:00:00 27 10 Este 32 Este 0 941.3 0.3 47
2019-08-12 19:00:00 29.8 18 Este 31 Este 0 940.7 -0.9 33
2019-08-12 18:00:00 31.9 12 Este 26 Este 0 940.8 -1.5 14
2019-08-12 17:00:00 32.4 12 Este 24 Este 0 941 -1.6 13
2019-08-12 16:00:00 33.1 8 Sudeste 22 Este 0 941.6 -1.4 12
2019-08-12 15:00:00 32.4 12 Nordeste 21 Nordeste 0 942.3 -0.7 12
2019-08-12 14:00:00 32.3 11 Este 24 Este 0 942.6 -0.3 13
2019-08-12 13:00:00 31.1 12 Nordeste 24 Este 0 943 0.2 14
2019-08-12 12:00:00 29.3 8 Nordeste 22 Nordeste 0 943 0.6 16
2019-08-12 11:00:00 27.4 7 Sudeste 14 Sudeste 0 942.9 0.8 20
2019-08-12 10:00:00 25.2 3 Este 8 Este 0 942.8 1.3 24
2019-08-12 09:00:00 20.3 3 Este 8 Oeste 0 942.4 1.1 46
2019-08-12 08:00:00 15.9 4 Oeste 8 Oeste 0 942.1 0.8 50
2019-08-12 07:00:00 15.8 2 Oeste 10 Sudoeste 0 941.5 0.1 50
2019-08-12 06:00:00 16.8 5 Oeste 8 Oeste 0 941.3 -0.4 54
2019-08-12 05:00:00 17.6 3 Oeste 8 Oeste 0 941.3 -0.8 59
2019-08-12 04:00:00 18.8 5 Oeste 8 Noroeste 0 941.4 -0.9 61
2019-08-12 03:00:00 20.6 4 Oeste 10 Nordeste 0 941.7 -0.6 56
2019-08-12 02:00:00 22.6 5 Nordeste 11 Nordeste 0 942.1 0.2 67
2019-08-12 01:00:00 23.9 3 Nordeste 9 Nordeste 0 942.3 1 73
2019-08-12 00:00:00 26.2 5 Nordeste 11 Nordeste 0 942.3 1.8 66
2019-08-11 23:00:00 27.1 3 Norte 12 Nordeste 0 941.9 2.1 61
2019-08-11 22:00:00 28.7 5 Nordeste 14 Nordeste 0 941.3 1.9 53
2019-08-11 21:00:00 29.7 6 Nordeste 18 Nordeste 0 940.5 0.8 51
2019-08-11 20:00:00 31.3 10 Este 23 Este 0 939.8 -0.1 48
2019-08-11 19:00:00 32.6 11 Este 23 Este 0 939.4 -0.9 43
2019-08-11 18:00:00 34.2 12 Este 24 Este 0 939.7 -1.1 32
2019-08-11 17:00:00 34.3 8 Sudeste 26 Nordeste 0 939.9 -1.6 29
2019-08-11 16:00:00 35 12 Este 24 Este 0 940.3 -1.8 29
2019-08-11 15:00:00 34 11 Este 25 Nordeste 0 940.8 -1.7 26
2019-08-11 14:00:00 33.9 9 Este 25 Nordeste 0 941.5 -0.9 27
2019-08-11 13:00:00 33.1 9 Nordeste 23 Este 0 942.1 -0.5 29
2019-08-11 12:00:00 32.1 9 Este 17 Este 0 942.5 -0.2 31
2019-08-11 11:00:00 29.7 8 Este 16 Sudeste 0 942.4 0 39
2019-08-11 10:00:00 27.6 5 Sudeste 10 Sudeste 0 942.6 0.5 40
2019-08-11 09:00:00 22.7 0 Calma 4 Oeste 0 942.7 1 53
2019-08-11 08:00:00 19.5 3 Sudoeste 8 Oeste 0 942.4 0.9 61
2019-08-11 07:00:00 19.8 2 Noroeste 15 Oeste 0 942.1 0.2 58
2019-08-11 06:00:00 21.1 7 Oeste 15 Oeste 0 941.7 -1 50
2019-08-11 05:00:00 20.7 4 Oeste 13 Oeste 0 941.5 -1.6 53
2019-08-11 04:00:00 22.4 6 Oeste 12 Sudoeste 0 941.9 -1.5 47
2019-08-11 03:00:00 21.6 3 Oeste 13 Sudoeste 0 942.7 -0.8 54
2019-08-11 02:00:00 24.1 10 Oeste 15 Oeste 0 943.1 -0.5 44
2019-08-11 01:00:00 26.2 10 Oeste 20 Oeste 0 943.4 0.3 40
2019-08-11 00:00:00 26.5 7 Oeste 17 Oeste 0 943.5 0.9 39
2019-08-10 23:00:00 24.7 2 Nordeste 7 Oeste 0 943.6 1.6 54
2019-08-10 22:00:00 27 4 Norte 11 Nordeste 0 943.1 1.3 47
2019-08-10 21:00:00 29.7 4 Nordeste 27 Este 0 942.6 1.1 38
2019-08-10 20:00:00 32.5 11 Este 31 Este 0 942 0.2 28
2019-08-10 19:00:00 35 16 Este 28 Sur 0 941.8 -0.8 22
2019-08-10 18:00:00 37.6 13 Sudeste 32 Sur 0 941.5 -2 13
2019-08-10 17:00:00 39.2 11 Sudoeste 25 Este 0 941.8 -2.4 12
2019-08-10 16:00:00 37.9 8 Nordeste 26 Este 0 942.6 -2.3 17
2019-08-10 15:00:00 36 9 Este 23 Este 0 943.5 -1.9 23
2019-08-10 14:00:00 36.1 7 Este 17 Este 0 944.2 -1.5 22
2019-08-10 13:00:00 34.5 8 Este 19 Este 0 944.9 -0.6 25
2019-08-10 12:00:00 32 7 Este 18 Este 0 945.4 0.3 28
2019-08-10 11:00:00 30.6 10 Este 18 Sudeste 0 945.7 0.9 29
2019-08-10 10:00:00 28.7 4 Este 8 Sudoeste 0 945.5 1.2 27
2019-08-10 09:00:00 22.9 2 Oeste 13 Sudoeste 0 945.1 1.4 37
2019-08-10 08:00:00 19.1 5 Sudoeste 14 Oeste 0 944.8 1.2 45
2019-08-10 07:00:00 20.4 4 Sudoeste 18 Oeste 0 944.3 0.8 37
2019-08-10 06:00:00 21.1 8 Oeste 14 Oeste 0 943.7 0.2 33
2019-08-10 05:00:00 20.2 3 Oeste 10 Oeste 0 943.6 0.1 37
2019-08-10 04:00:00 23.1 7 Oeste 21 Oeste 0 943.5 0.1 28
2019-08-10 03:00:00 24.6 12 Oeste 24 Oeste 0 943.5 0.2 23
2019-08-10 02:00:00 25.5 15 Oeste 21 Sudoeste 0 943.5 0.5 21
2019-08-10 01:00:00 26.6 11 Oeste 18 Oeste 0 943.4 1.3 19
2019-08-10 00:00:00 27.4 3 Sudeste 15 Sudoeste 0 943.3 2 17
2019-08-09 23:00:00 26.8 6 Noroeste 11 Noroeste 0 943 2.4 16
2019-08-09 22:00:00 30.4 5 Norte 12 Noroeste 0 942.1 1.7 12
2019-08-09 21:00:00 32.5 4 Norte 17 Sudoeste 0 941.3 0.8 13
2019-08-09 20:00:00 38.1 13 Oeste 25 Sudoeste 0 940.6 -0.3 7
2019-08-09 19:00:00 39.9 11 Sudoeste 27 Sudoeste 0 940.4 -1 6
2019-08-09 18:00:00 39.6 7 Nordeste 24 Sur 0 940.5 -1.2 7
2019-08-09 17:00:00 39.4 9 Este 20 Nordeste 0 940.9 -1.2 7
2019-08-09 16:00:00 39.5 8 Nordeste 22 Este 0 941.4 -1.2 8
2019-08-09 15:00:00 40.3 9 Este 21 Este 0 941.7 -1.1 7
2019-08-09 14:00:00 38.7 13 Nordeste 29 Nordeste 0 942.1 -0.8 9
2019-08-09 13:00:00 37.2 13 Nordeste 22 Este 0 942.6 -0.2 11
2019-08-09 12:00:00 36.2 7 Este 18 Este 0 942.8 0.2 13
2019-08-09 11:00:00 33 7 Norte 13 Nordeste 0 942.9 0.3 16
2019-08-09 10:00:00 29.7 5 Sudoeste 16 Oeste 0 942.8 0.4 20
2019-08-09 09:00:00 24 12 Oeste 22 Sudoeste 0 942.6 0.3 27
2019-08-09 08:00:00 18.9 2 Norte 23 Oeste 0 942.6 0.3 41
2019-08-09 07:00:00 19.5 10 Oeste 22 Oeste 0 942.4 0.4 32
2019-08-09 06:00:00 17.8 6 Oeste 14 Oeste 0 942.3 0.2 38
2019-08-09 05:00:00 19 4 Noroeste 15 Oeste 0 942.3 0 40
2019-08-09 04:00:00 22.4 10 Oeste 20 Oeste 0 942 -0.2 25
2019-08-09 03:00:00 22.9 12 Oeste 22 Oeste 0 942.1 0.1 25
2019-08-09 02:00:00 23 6 Oeste 20 Oeste 0 942.3 0.5 28
2019-08-09 01:00:00 21.7 4 Sudoeste 18 Oeste 0 942.2 1.1 33
2019-08-09 00:00:00 23.6 3 Noroeste 16 Oeste 0 942 1.6 32
2019-08-08 23:00:00 24.9 4 Oeste 22 Sudoeste 0 941.8 2 32
2019-08-08 22:00:00 28.5 12 Oeste 23 Oeste 0 941.1 1.5 26
2019-08-08 21:00:00 31.1 9 Oeste 24 Sur 0 940.4 0.7 22
2019-08-08 20:00:00 34.3 4 Sur 16 Este 0 939.8 -0.3 18
2019-08-08 19:00:00 35.3 12 Este 22 Este 0 939.6 -0.8 18
2019-08-08 18:00:00 35.7 13 Este 33 Este 0 939.7 -1.3 17
2019-08-08 17:00:00 36.3 16 Este 28 Este 0 940.1 -1.5 15
2019-08-08 16:00:00 37.1 15 Nordeste 27 Este 0 940.4 -2 14
2019-08-08 15:00:00 37.1 8 Este 23 Sudeste 0 941 -1.7 14
2019-08-08 14:00:00 36.5 13 Este 22 Este 0 941.6 -1 13
2019-08-08 13:00:00 36 8 Sudeste 16 Nordeste 0 942.4 -0.2 15
2019-08-08 12:00:00 32.5 5 Este 14 Este 0 942.7 0.3 20
2019-08-08 11:00:00 31.1 6 Sudeste 12 Este 0 942.6 0.3 22
2019-08-08 10:00:00 28.4 4 Sur 10 Sur 0 942.6 0.6 27
2019-08-08 09:00:00 23.1 4 Sudoeste 13 Sudoeste 0 942.4 0.8 38
2019-08-08 08:00:00 19.2 6 Oeste 17 Oeste 0 942.3 0.9 42
2019-08-08 07:00:00 19.2 4 Oeste 17 Oeste 0 942 0.8 45
2019-08-08 06:00:00 19.1 3 Oeste 16 Sudoeste 0 941.6 0.1 47
2019-08-08 05:00:00 19.4 4 Oeste 15 Oeste 0 941.4 -0.3 46
2019-08-08 04:00:00 20.4 7 Oeste 11 Oeste 0 941.2 -0.4 42
2019-08-08 03:00:00 21.2 2 Oeste 7 Oeste 0 941.5 0.2 47
2019-08-08 02:00:00 23.9 3 Oeste 14 Noroeste 0 941.7 0.1 38
2019-08-08 01:00:00 23.1 4 Noroeste 7 Noroeste 0 941.6 1.1 40
2019-08-08 00:00:00 24.9 4 Noroeste 7 Sudeste 0 941.3 1.5 37
2019-08-07 23:00:00 27 4 Sur 8 Noroeste 0 941.6 2.5 27
2019-08-07 22:00:00 28.5 5 Noroeste 9 Norte 0 940.5 1.7 31
2019-08-07 21:00:00 31.4 4 Noroeste 18 Nordeste 0 939.8 1 27
2019-08-07 20:00:00 34.7 8 Este 14 Este 0 939.1 0.2 14
2019-08-07 19:00:00 35.8 4 Nordeste 15 Este 0 938.8 -0.6 12
2019-08-07 18:00:00 37.4 10 Este 18 Nordeste 0 938.8 -0.9 9
2019-08-07 17:00:00 36.6 8 Nordeste 19 Este 0 938.9 -0.9 10
2019-08-07 16:00:00 38.2 4 Este 23 Nordeste 0 939.4 -0.9 10
2019-08-07 15:00:00 37 13 Nordeste 30 Nordeste 0 939.7 -1 11
2019-08-07 14:00:00 38.4 8 Nordeste 22 Nordeste 0 939.8 -0.9 10
2019-08-07 13:00:00 36.2 4 Nordeste 14 Nordeste 0 940.3 0 11
2019-08-07 12:00:00 33.6 3 Nordeste 9 Sur 0 940.7 1.1 14
2019-08-07 11:00:00 31.8 4 Este 10 Este 0 940.7 1.2 15
2019-08-07 10:00:00 29.7 3 Sudeste 14 Sudoeste 0 940.3 0.9 19
2019-08-07 09:00:00 25.2 9 Oeste 22 Sudoeste 0 939.6 0.7 24
2019-08-07 08:00:00 19.5 7 Oeste 21 Oeste 0 939.5 0.9 33
2019-08-07 07:00:00 17.8 5 Oeste 12 Oeste 0 939.4 0.9 49
2019-08-07 06:00:00 19.2 4 Oeste 18 Oeste 0 938.9 -0.1 47
2019-08-07 05:00:00 21.8 9 Oeste 17 Oeste 0 938.6 -0.8 32
2019-08-07 04:00:00 22.1 9 Oeste 14 Oeste 0 938.5 -1.2 39
2019-08-07 03:00:00 21.6 6 Oeste 13 Oeste 0 939 -0.5 48
2019-08-07 02:00:00 23.9 3 Sudoeste 17 Sudoeste 0 939.4 -0.1 47
2019-08-07 01:00:00 24.6 9 Oeste 16 Oeste 0 939.7 1.1 47
2019-08-07 00:00:00 26.9 6 Sudoeste 16 Oeste 0 939.5 1.4 42
2019-08-06 23:00:00 28.3 10 Oeste 18 Oeste 0 939.5 2.2 40
2019-08-06 22:00:00 29.3 5 Nordeste 15 Nordeste 0 938.6 1.8 35
2019-08-06 21:00:00 32 7 Norte 21 Nordeste 0 938.1 0.5 29
2019-08-06 20:00:00 34.3 10 Nordeste 39 Sur 0 937.3 -1 25
2019-08-06 19:00:00 37.5 8 Noroeste 26 Norte 0 936.8 -2.1 13
2019-08-06 18:00:00 37.1 13 Este 32 Este 0 937.6 -2.2 21
2019-08-06 17:00:00 37.7 14 Nordeste 29 Este 0 938.3 -2.2 21
2019-08-06 16:00:00 37.9 11 Este 23 Nordeste 0 938.9 -2.4 19
2019-08-06 15:00:00 38.2 13 Este 26 Este 0 939.8 -1.7 17
2019-08-06 14:00:00 37.1 13 Este 23 Este 0 940.5 -1.2 18
2019-08-06 13:00:00 35.8 12 Este 24 Este 0 941.3 -0.4 23
2019-08-06 12:00:00 35.4 9 Este 18 Sudeste 0 941.5 0 23
2019-08-06 11:00:00 33.9 8 Este 14 Sudeste 0 941.7 0.4 22
2019-08-06 10:00:00 29.9 3 Norte 10 Noroeste 0 941.7 0.4 29
2019-08-06 09:00:00 24.7 11 Oeste 27 Oeste 0 941.5 0.4 35
2019-08-06 08:00:00 20.8 14 Oeste 26 Oeste 0 941.3 -0.1 45
2019-08-06 07:00:00 20.2 11 Oeste 20 Oeste 0 941.3 -0.3 53
2019-08-06 06:00:00 18.7 3 Oeste 11 Oeste 0 941.1 -0.4 75
2019-08-06 05:00:00 19.4 2 Sur 7 Oeste 0 941.4 -0.2 74
2019-08-06 04:00:00 19.9 3 Noroeste 5 Sudoeste 0 941.6 -0.1 77
2019-08-06 03:00:00 21.9 2 Noroeste 10 Sudoeste 0 941.5 -0.4 72
2019-08-06 02:00:00 23.8 6 Oeste 17 Sudoeste 0 941.6 0.1 60
2019-08-06 01:00:00 25.2 8 Oeste 21 Oeste 0 941.7 1.1 58
2019-08-06 00:00:00 26 14 Oeste 23 Oeste 0 941.9 2 59
2019-08-05 23:00:00 27.5 8 Sudoeste 17 Oeste 0 941.5 2 51
2019-08-05 22:00:00 27.2 4 Oeste 12 Nordeste 0 940.6 0.7 60
2019-08-05 21:00:00 29.4 6 Nordeste 15 Nordeste 0 939.9 0.7 53
2019-08-05 20:00:00 31.4 8 Este 23 Este 0 939.5 -0.3 45
2019-08-05 19:00:00 32.8 12 Este 30 Nordeste 0 939.9 -0.4 40
2019-08-05 18:00:00 34.9 15 Este 33 Este 0 939.2 -1.6 33
2019-08-05 17:00:00 35 14 Este 30 Nordeste 0 939.8 -1.7 33
2019-08-05 16:00:00 35.2 15 Este 28 Este 0 940.3 -2 30
2019-08-05 15:00:00 35.5 11 Este 26 Nordeste 0 940.8 -1.9 25
2019-08-05 14:00:00 35.4 10 Este 22 Este 0 941.5 -1.3 27
2019-08-05 13:00:00 34.5 9 Este 18 Nordeste 0 942.3 -0.4 33
2019-08-05 12:00:00 32.2 5 Nordeste 16 Este 0 942.7 -0.2 37
2019-08-05 11:00:00 30.7 8 Este 14 Nordeste 0 942.8 0.2 43
2019-08-05 10:00:00 28.1 3 Este 7 Sudeste 0 942.7 0.8 48
2019-08-05 09:00:00 23.8 4 Noroeste 10 Sudoeste 0 942.9 1 49
2019-08-05 08:00:00 20.6 6 Sudoeste 14 Oeste 0 942.6 0.3 54
2019-08-05 07:00:00 19 4 Oeste 15 Sudoeste 0 941.9 -0.6 76
2019-08-05 06:00:00 19.3 4 Oeste 7 Oeste 0 941.9 -0.7 81
2019-08-05 05:00:00 20.1 4 Oeste 8 Sudoeste 0 942.3 -0.4 80
2019-08-05 04:00:00 21.9 5 Sudoeste 10 Sur 0 942.5 -0.6 76
2019-08-05 03:00:00 23.1 3 Este 18 Sur 0 942.6 -0.2 69
2019-08-05 02:00:00 24.6 11 Sudoeste 20 Sudoeste 0 942.7 0.6 58
2019-08-05 01:00:00 25.8 14 Oeste 23 Oeste 0 943.1 1.6 56
2019-08-05 00:00:00 27 11 Oeste 20 Oeste 0 942.8 1.9 51
2019-08-04 23:00:00 27.3 10 Oeste 14 Oeste 0 942.1 1.8 53
2019-08-04 22:00:00 27.7 5 Noroeste 9 Oeste 0 941.5 1.3 54
2019-08-04 21:00:00 29.9 3 Oeste 18 Este 0 940.9 0.8 47
2019-08-04 20:00:00 31.8 8 Este 23 Nordeste 0 940.3 -0.1 42
2019-08-04 19:00:00 33 10 Este 27 Este 0 940.2 -0.6 37
2019-08-04 18:00:00 34.3 12 Este 27 Este 0 940.1 -1.3 27
2019-08-04 17:00:00 35.1 17 Este 33 Nordeste 0 940.4 -1.4 25
2019-08-04 16:00:00 36.2 13 Este 24 Este 0 940.8 -1.8 22
2019-08-04 15:00:00 36 11 Este 21 Nordeste 0 941.4 -1.3 18
2019-08-04 14:00:00 35.5 12 Este 25 Este 0 941.8 -0.9 23
2019-08-04 13:00:00 33.4 10 Este 20 Este 0 942.6 0.2 27
2019-08-04 12:00:00 31.3 11 Este 19 Este 0 942.7 0.6 38
2019-08-04 11:00:00 30.3 10 Este 20 Este 0 942.7 0.8 41
2019-08-04 10:00:00 28.2 5 Sudoeste 19 Oeste 0 942.4 0.6 43
2019-08-04 09:00:00 24.1 7 Sudoeste 14 Oeste 0 942.1 0.2 55
2019-08-04 08:00:00 20 8 Oeste 13 Oeste 0 941.9 -0.1 72
2019-08-04 07:00:00 19.2 4 Noroeste 14 Noroeste 0 941.8 -0.2 82
2019-08-04 06:00:00 20.1 7 Oeste 16 Oeste 0 941.9 -0.1 79
2019-08-04 05:00:00 19.8 3 Oeste 9 Oeste 0 942 -0.3 81
2019-08-04 04:00:00 21.4 5 Oeste 14 Sudoeste 0 942 -0.4 76
2019-08-04 03:00:00 22.4 8 Sudoeste 17 Oeste 0 942 -0.4 74
2019-08-04 02:00:00 23.2 9 Sudoeste 18 Sudoeste 0 942.3 0.2 72
2019-08-04 01:00:00 24.2 8 Sudoeste 21 Sudoeste 0 942.4 1.2 69
2019-08-04 00:00:00 24.7 9 Oeste 17 Oeste 0 942.4 1.8 68
2019-08-03 23:00:00 23.4 3 Oeste 8 Norte 0 942.1 1.9 67
2019-08-03 22:00:00 25.2 5 Norte 12 Nordeste 0 941.2 0.7 60
2019-08-03 21:00:00 27 8 Nordeste 18 Nordeste 0 940.6 0.1 54
2019-08-03 20:00:00 29.2 8 Nordeste 20 Nordeste 0 940.2 -0.7 46
2019-08-03 19:00:00 30.2 10 Nordeste 26 Este 0 940.5 -1.1 42
2019-08-03 18:00:00 31.7 14 Nordeste 33 Nordeste 0 940.5 -1.7 37
2019-08-03 17:00:00 33.4 13 Este 27 Este 0 940.9 -1.9 33
2019-08-03 16:00:00 33.1 12 Nordeste 23 Este 0 941.6 -1.5 35
2019-08-03 15:00:00 33.4 9 Este 20 Este 0 942.2 -1.1 33
2019-08-03 14:00:00 31.9 8 Nordeste 20 Este 0 942.8 -0.7 37
2019-08-03 13:00:00 30.4 11 Este 22 Este 0 943.1 -0.5 43
2019-08-03 12:00:00 29.3 11 Este 21 Nordeste 0 943.3 -0.1 45
2019-08-03 11:00:00 27.3 10 Este 15 Nordeste 0 943.5 0.6 54
2019-08-03 10:00:00 25.4 5 Este 10 Nordeste 0 943.6 0.8 58
2019-08-03 09:00:00 23.1 2 Sudeste 10 Sudoeste 0 943.4 1.1 65
2019-08-03 08:00:00 19.5 8 Oeste 14 Oeste 0 942.9 0.3 79
2019-08-03 07:00:00 18.8 3 Oeste 6 Sudoeste 0 942.8 0.2 88
2019-08-03 06:00:00 18.7 3 Oeste 6 Oeste 0 942.3 -0.6 87
2019-08-03 05:00:00 19.4 4 Sudoeste 8 Sur 0 942.6 -0.4 86
2019-08-03 04:00:00 19.9 0 Calma 5 Sur 0 942.6 -0.7 82
2019-08-03 03:00:00 21.7 2 Norte 10 Oeste 0 942.9 -0.1 77
2019-08-03 02:00:00 23.2 7 Sudoeste 21 Oeste 0 943 0.5 72
2019-08-03 01:00:00 24.2 12 Oeste 24 Sudoeste 0 943.3 1.5 68
2019-08-03 00:00:00 25.2 13 Oeste 23 Oeste 0 943 1.9 63
2019-08-02 23:00:00 24.7 4 Oeste 8 Norte 0 942.5 1.7 57
2019-08-02 22:00:00 26.3 5 Noroeste 12 Nordeste 0 941.8 0.9 53
2019-08-02 21:00:00 28.7 6 Nordeste 19 Nordeste 0 941.1 -0.2 46
2019-08-02 20:00:00 30.9 10 Este 22 Nordeste 0 940.8 -0.7 38
2019-08-02 19:00:00 31.7 10 Este 24 Nordeste 0 940.9 -1 35
2019-08-02 18:00:00 32.5 12 Este 27 Este 0 941.3 -0.7 33
2019-08-02 17:00:00 33.4 14 Este 28 Este 0 941.5 -0.9 31
2019-08-02 16:00:00 33.8 13 Este 28 Este 0 941.9 -0.7 28
2019-08-02 15:00:00 34.2 13 Este 24 Este 0 942 -0.6 26
2019-08-02 14:00:00 34 13 Este 24 Este 0 942.4 0 28
2019-08-02 13:00:00 32.8 11 Este 25 Sudeste 0 942.6 0.6 29
2019-08-02 12:00:00 30.9 10 Este 20 Este 0 942.6 0.7 41
2019-08-02 11:00:00 28.4 8 Este 18 Este 0 942.4 0.9 46
2019-08-02 10:00:00 28.2 6 Este 12 Oeste 0 942 0.7 39
2019-08-02 09:00:00 24.1 8 Oeste 16 Oeste 0 941.9 0.5 50
2019-08-02 08:00:00 18.2 4 Oeste 10 Oeste 0 941.5 0.2 78
2019-08-02 07:00:00 17.9 5 Oeste 14 Oeste 0 941.3 -0.1 80
2019-08-02 06:00:00 18.7 6 Oeste 11 Oeste 0 941.4 -0.2 81
2019-08-02 05:00:00 19.4 8 Sudoeste 13 Sudoeste 0 941.3 -0.5 77
2019-08-02 04:00:00 19.9 5 Sudoeste 10 Oeste 0 941.4 -0.4 79
2019-08-02 03:00:00 19.9 3 Sudoeste 6 Oeste 0 941.6 0 76
2019-08-02 02:00:00 21.7 3 Sudoeste 11 Oeste 0 941.8 0.4 71
2019-08-02 01:00:00 23.3 7 Sudoeste 21 Oeste 0 941.8 1.5 65
2019-08-02 00:00:00 23.9 11 Oeste 20 Oeste 0 941.6 2.1 63
2019-08-01 23:00:00 24.9 11 Oeste 22 Oeste 0.2 941.4 2.7 59
2019-08-01 22:00:00 26.1 14 Oeste 21 Oeste 0 940.3 2.1 56
2019-08-01 21:00:00 29.7 7 Sudoeste 16 Este 0 939.5 1.2 40
2019-08-01 20:00:00 31.9 10 Este 23 Este 0 938.7 -0.2 29
2019-08-01 19:00:00 33.6 12 Este 22 Nordeste 0 938.2 -1.3 26
2019-08-01 18:00:00 34.3 10 Este 23 Este 0 938.3 -1.7 24
2019-08-01 17:00:00 34.5 7 Este 20 Este 0 938.9 -1.8 23
2019-08-01 16:00:00 34.1 10 Nordeste 19 Este 0 939.5 -1.6 23
2019-08-01 15:00:00 33.4 12 Este 22 Este 0 940 -1.5 25
2019-08-01 14:00:00 32.6 7 Nordeste 18 Sudeste 0 940.7 -0.8 27
2019-08-01 13:00:00 30.5 10 Este 18 Este 0 941.1 -0.2 28
2019-08-01 12:00:00 28.9 5 Sur 16 Sudeste 0 941.5 0.2 31
2019-08-01 11:00:00 26.3 6 Sudeste 12 Sudeste 0 941.5 -0.2 43
2019-08-01 10:00:00 23.7 4 Este 9 Este 0 941.3 -0.1 50
2019-08-01 09:00:00 19.6 3 Este 20 Oeste 0 941.3 -0.2 55
2019-08-01 08:00:00 15.9 13 Oeste 24 Oeste 0 941.7 0.1 62
2019-08-01 07:00:00 14.9 4 Oeste 21 Sudoeste 0 941.4 -0.3 72
2019-08-01 06:00:00 16 17 Oeste 23 Oeste 0 941.5 -0.5 62
2019-08-01 05:00:00 17.1 8 Oeste 13 Oeste 0 941.6 -0.2 66
2019-08-01 04:00:00 16.5 7 Oeste 11 Oeste 0 941.7 -0.6 63
2019-08-01 03:00:00 17.2 3 Oeste 13 Noroeste 0 942 -0.4 67
2019-08-01 02:00:00 18.9 6 Noroeste 13 Noroeste 0 941.8 -1 61
2019-08-01 01:00:00 18.5 4 Noroeste 13 Noroeste 0 942.3 -0.1 64
2019-08-01 00:00:00 19.7 6 Norte 12 Norte 0 942.4 0.8 59
2019-07-31 23:00:00 20.6 5 Norte 10 Noroeste 0 942.8 1.7 47
2019-07-31 22:00:00 21.3 5 Noroeste 8 Noroeste 0 942.4 1.5 46
2019-07-31 21:00:00 24.4 5 Este 19 Sudeste 0 941.6 0.3 36
2019-07-31 20:00:00 26.1 11 Este 21 Este 0 941.1 -1 39
2019-07-31 19:00:00 27 12 Este 23 Este 0 940.9 -2.1 38
2019-07-31 18:00:00 27.4 13 Este 27 Este 0 941.3 -2.1 39
2019-07-31 17:00:00 27.8 13 Este 28 Este 0 942.1 -1.9 36
2019-07-31 16:00:00 28.5 12 Este 27 Este 0 943 -1.4 41
2019-07-31 15:00:00 26.5 16 Este 28 Este 0 943.4 -1.3 54
2019-07-31 14:00:00 26.1 13 Este 24 Este 0 944 -0.1 51
2019-07-31 13:00:00 24.9 9 Sudeste 26 Este 0 944.4 0.6 56
2019-07-31 12:00:00 25.2 9 Este 31 Este 0 944.7 1 49
2019-07-31 11:00:00 26.2 9 Este 18 Este 0 944.1 0.8 47
2019-07-31 10:00:00 24.3 6 Este 19 Este 0 943.8 1.4 53
2019-07-31 09:00:00 22.2 3 Nordeste 9 Sudeste 0 943.7 1 68
2019-07-31 08:00:00 19.7 4 Sudoeste 13 Nordeste 0 943.3 -0.4 78
2019-07-31 07:00:00 19.7 7 Nordeste 14 Nordeste 0 942.4 -1.1 77
2019-07-31 06:00:00 19 6 Este 11 Norte 0 942.7 -1 75
2019-07-31 05:00:00 18.7 3 Oeste 8 Noroeste 0 943.7 0.6 82
2019-07-31 04:00:00 18.9 2 Noroeste 9 Noroeste 0 943.5 0.5 84
2019-07-31 03:00:00 19.7 2 Oeste 14 Nordeste 0 943.7 1.1 81
2019-07-31 02:00:00 20.8 5 Nordeste 15 Norte 0 943.1 0.6 80
2019-07-31 01:00:00 21.1 6 Norte 13 Nordeste 0 943 1.2 76
2019-07-31 00:00:00 21.6 5 Norte 12 Nordeste 0 942.6 1.6 65
2019-07-30 23:00:00 22.5 5 Norte 18 Nordeste 0 942.5 2.3 60
2019-07-30 22:00:00 23.8 8 Nordeste 19 Nordeste 0 941.8 1.8 58
2019-07-30 21:00:00 25.7 9 Nordeste 26 Este 0 941 0.9 54
2019-07-30 20:00:00 28.3 10 Nordeste 26 Este 0 940.2 0.3 46
2019-07-30 19:00:00 29.5 17 Este 37 Este 0 940 -0.1 41
2019-07-30 18:00:00 31.2 17 Este 36 Este 0 940.1 -0.2 34
2019-07-30 17:00:00 32.7 19 Este 39 Este 0 939.9 -1.1 30
2019-07-30 16:00:00 34.7 15 Este 33 Este 0 940.1 -1.3 21
2019-07-30 15:00:00 36.2 10 Este 28 Este 0 940.3 -1.3 15
2019-07-30 14:00:00 35.2 6 Nordeste 20 Este 0 941 -0.7 14
2019-07-30 13:00:00 34.5 8 Este 17 Este 0 941.4 -0.4 14
2019-07-30 12:00:00 33.4 9 Sudeste 17 Sudeste 0 941.6 0.1 17
2019-07-30 11:00:00 31.3 8 Este 16 Sudeste 0 941.7 0.6 20
2019-07-30 10:00:00 28.6 5 Sur 16 Sudoeste 0 941.8 1 24
2019-07-30 09:00:00 23.3 8 Oeste 15 Oeste 0 941.5 1.1 33
2019-07-30 08:00:00 18.8 5 Oeste 18 Oeste 0 941.1 0.8 46
2019-07-30 07:00:00 17 3 Oeste 16 Oeste 0 940.8 0.6 56
2019-07-30 06:00:00 19.6 12 Oeste 20 Oeste 0 940.4 0 51
2019-07-30 05:00:00 18.8 9 Oeste 14 Oeste 0 940.3 -0.2 61
2019-07-30 04:00:00 19.5 5 Oeste 12 Oeste 0 940.2 -0.1 60
2019-07-30 03:00:00 19.1 4 Oeste 9 Oeste 0 940.4 0.4 63
2019-07-30 02:00:00 20.6 3 Sur 6 Sudeste 0 940.5 0.7 59
2019-07-30 01:00:00 23.1 4 Noroeste 15 Oeste 0 940.3 1.3 51
2019-07-30 00:00:00 25.3 9 Oeste 17 Sudoeste 0 940 1.7 44
2019-07-29 23:00:00 26.1 6 Sudoeste 18 Oeste 0 939.8 2 41
2019-07-29 22:00:00 27.1 9 Oeste 14 Sudoeste 0 939 1.5 38
2019-07-29 21:00:00 28.4 4 Oeste 19 Este 0 938.3 0.8 37
2019-07-29 20:00:00 30.4 8 Este 22 Este 0 937.8 0.1 32
2019-07-29 19:00:00 31.9 13 Este 26 Este 0 937.5 -0.7 30
2019-07-29 18:00:00 33.2 12 Este 31 Este 0 937.5 -0.9 25
2019-07-29 17:00:00 33.8 12 Este 26 Este 0 937.7 -1 24
2019-07-29 16:00:00 34.6 14 Sudeste 26 Este 0 938.2 -1 24
2019-07-29 15:00:00 34.4 13 Este 26 Este 0 938.4 -1.1 22
2019-07-29 14:00:00 33.3 9 Nordeste 24 Este 0 938.7 -0.8 25
2019-07-29 13:00:00 32.5 9 Nordeste 20 Nordeste 0 939.2 -0.5 25
2019-07-29 12:00:00 31.9 8 Este 16 Este 0 939.5 -0.3 25
2019-07-29 11:00:00 29.5 7 Este 14 Este 0 939.5 0.2 30
2019-07-29 10:00:00 26.4 5 Este 8 Este 0 939.7 0.7 36
2019-07-29 09:00:00 22.9 2 Este 13 Oeste 0 939.8 1.2 46
2019-07-29 08:00:00 17.7 7 Sudoeste 11 Sudoeste 0 939.3 0.5 60
2019-07-29 07:00:00 16.4 5 Oeste 15 Oeste 0 939 0.3 66
2019-07-29 06:00:00 17.9 11 Oeste 16 Oeste 0 938.6 -0.2 59
2019-07-29 05:00:00 16.3 3 Oeste 9 Oeste 0 938.8 -0.1 67
2019-07-29 04:00:00 16.8 3 Oeste 6 Sudoeste 0 938.7 -0.4 65
2019-07-29 03:00:00 18.2 4 Sudoeste 9 Sudoeste 0 938.8 -0.5 60
2019-07-29 02:00:00 20.9 8 Sudoeste 13 Sudoeste 0 938.9 -0.2 49
2019-07-29 01:00:00 21.8 8 Sudoeste 21 Oeste 0 939.1 0.9 48
2019-07-29 00:00:00 22.4 10 Oeste 22 Sudoeste 0 939.3 1.8 45
2019-07-28 23:00:00 24 12 Oeste 24 Oeste 0 939.1 2.4 40
2019-07-28 22:00:00 24.6 13 Oeste 21 Oeste 0 938.2 2.1 39
2019-07-28 21:00:00 26.3 8 Sudoeste 22 Sur 0 937.5 1.5 34
2019-07-28 20:00:00 28.5 14 Sur 24 Este 0 936.7 0.4 30
2019-07-28 19:00:00 29.4 14 Este 31 Nordeste 0 936.1 -0.7 31
2019-07-28 18:00:00 30.7 12 Este 30 Este 0 936 -1.3 28
2019-07-28 17:00:00 31 13 Este 31 Nordeste 0 936.3 -1.5 25
2019-07-28 16:00:00 33.3 7 Sudeste 33 Este 0 936.8 -1.5 21
2019-07-28 15:00:00 32.2 12 Sudeste 27 Sudeste 0 937.3 -1.4 23
2019-07-28 14:00:00 32 10 Este 20 Este 0 937.8 -1 24
2019-07-28 13:00:00 30.2 5 Sudeste 15 Este 0 938.3 -0.5 25
2019-07-28 12:00:00 28.4 8 Este 21 Este 0 938.7 0.1 31
2019-07-28 11:00:00 28.5 8 Sudeste 16 Nordeste 0 938.8 0.4 33
2019-07-28 10:00:00 26 5 Este 15 Este 0 938.8 0.8 38
2019-07-28 09:00:00 22.2 9 Sudoeste 17 Oeste 0 938.6 1.1 49
2019-07-28 08:00:00 19.2 4 Oeste 16 Sudoeste 0 938.4 1.2 58
2019-07-28 07:00:00 18.6 8 Oeste 15 Oeste 0 938 0.7 59
2019-07-28 06:00:00 19.4 7 Sudoeste 18 Oeste 0 937.5 -0.1 55
2019-07-28 05:00:00 18.9 8 Sudoeste 13 Sudoeste 0 937.2 -0.6 57
2019-07-28 04:00:00 20.5 8 Oeste 20 Sudoeste 0 937.3 -0.7 50
2019-07-28 03:00:00 21.4 8 Sudoeste 22 Sudoeste 0 937.6 -0.2 47
2019-07-28 02:00:00 22.3 7 Sur 28 Oeste 0 937.8 0.6 42
2019-07-28 01:00:00 23.3 10 Oeste 27 Oeste 0 938 1.9 39
2019-07-28 00:00:00 23.5 9 Oeste 24 Oeste 0 937.8 2.5 45
2019-07-27 23:00:00 24.8 8 Noroeste 22 Noroeste 0 937.2 2.4 43
2019-07-26 12:00:00 32.6 8 Este 15 Este 0 939.3 -0.7 26
2019-07-26 11:00:00 31.2 7 Este 17 Este 0 939.7 -0.2 27
2019-07-26 10:00:00 27.6 9 Sudoeste 20 Sudoeste 0 940 0.1 33
2019-07-26 09:00:00 22.7 14 Oeste 22 Oeste 0 940 0.2 46
2019-07-26 08:00:00 20.5 8 Sudoeste 13 Oeste 0 939.9 -0.3 52
2019-07-26 07:00:00 18.5 7 Oeste 13 Oeste 0 939.9 -0.4 62
2019-07-26 06:00:00 18.4 5 Oeste 13 Oeste 0 939.8 -0.9 62
2019-07-26 05:00:00 18.9 5 Oeste 13 Oeste 0 940.2 -1.2 60
2019-07-26 04:00:00 18.7 5 Oeste 10 Sudoeste 0 940.3 -1.5 63
2019-07-26 03:00:00 20.6 3 Noroeste 14 Sudoeste 0 940.7 -1.4 57
2019-07-26 02:00:00 22 7 Oeste 12 Sudoeste 0 941.4 -0.5 52
2019-07-26 01:00:00 23.4 6 Oeste 16 Oeste 0 941.8 0.5 49
2019-07-26 00:00:00 24.2 9 Oeste 14 Oeste 0 942.1 1.5 47
2019-07-25 23:00:00 24 4 Noroeste 9 Norte 0 941.9 1.7 45
2019-07-25 22:00:00 26.1 5 Norte 15 Nordeste 0 941.3 1.3 39
2019-07-25 21:00:00 29.3 7 Este 18 Este 0 940.6 0.3 29
2019-07-25 20:00:00 30.8 8 Este 28 Este 0 940.2 -0.6 26
2019-07-25 19:00:00 32.6 18 Este 35 Este 0 940 -1.2 23
2019-07-25 18:00:00 34.2 18 Este 35 Este 0 940.3 -1.4 21
2019-07-25 17:00:00 35.1 17 Este 30 Este 0 940.8 -1.4 19
2019-07-25 16:00:00 36.2 15 Este 31 Este 0 941.2 -1.4 16
2019-07-25 15:00:00 35.2 10 Nordeste 30 Este 0 941.7 -1.3 17
2019-07-25 14:00:00 35 13 Este 26 Este 0 942.2 -1.2 18
2019-07-25 13:00:00 33.9 10 Este 18 Este 0 942.6 -0.9 20
2019-07-25 12:00:00 32.4 7 Este 16 Este 0 943 -0.5 22
2019-07-25 11:00:00 31.1 5 Este 10 Este 0 943.4 0.1 22
2019-07-25 10:00:00 28.4 3 Sudeste 12 Oeste 0 943.5 0.4 27
2019-07-25 09:00:00 22.7 9 Sudoeste 21 Oeste 0 943.5 0.7 36
2019-07-25 08:00:00 18 8 Oeste 14 Oeste 0 943.3 0.3 48
2019-07-25 07:00:00 18.1 8 Oeste 14 Oeste 0 943.1 0.1 49
2019-07-25 06:00:00 17.5 7 Oeste 12 Oeste 0 942.8 -0.3 50
2019-07-25 05:00:00 16.9 6 Oeste 12 Oeste 0 943 -0.5 54
2019-07-25 04:00:00 17.6 4 Oeste 12 Oeste 0 943 -0.6 52
2019-07-25 03:00:00 17.9 3 Noroeste 12 Sudoeste 0 943.1 -0.5 54
2019-07-25 02:00:00 18.8 2 Noroeste 6 Nordeste 0 943.5 0 52
2019-07-25 01:00:00 19.8 0 Calma 6 Noroeste 0 943.6 0.7 49
2019-07-25 00:00:00 21.5 2 Oeste 8 Noroeste 0 943.6 1.1 43
2019-07-24 23:00:00 23.1 4 Noroeste 7 Noroeste 0 943.5 1.2 40
2019-07-24 22:00:00 25.6 5 Norte 15 Este 0 942.9 0.8 33
2019-07-24 21:00:00 29.8 8 Este 22 Este 0 942.5 0.2 25
2019-07-24 20:00:00 31.9 11 Sudeste 26 Sudeste 0 942.3 -0.2 22
2019-07-24 19:00:00 33.2 16 Este 31 Este 0 942.1 -0.5 20
2019-07-24 18:00:00 34.8 16 Este 31 Sudeste 0 942.3 -0.9 17
2019-07-24 17:00:00 35.7 16 Este 31 Sudeste 0 942.5 -1.2 15
2019-07-24 16:00:00 36.7 15 Este 35 Este 0 942.6 -1.5 13
2019-07-24 15:00:00 35.6 19 Este 36 Este 0 943.2 -1.4 13
2019-07-24 14:00:00 35.8 12 Este 28 Este 0 943.7 -1 12
2019-07-24 13:00:00 34 11 Nordeste 24 Este 0 944.1 -0.6 14
2019-07-24 12:00:00 31.9 9 Este 21 Nordeste 0 944.6 0 18
2019-07-24 11:00:00 30.5 7 Nordeste 14 Este 0 944.7 0.4 19
2019-07-24 10:00:00 28.2 3 Nordeste 5 Este 0 944.7 0.5 27
2019-07-24 09:00:00 22.9 2 Este 4 Sudoeste 0 944.6 0.6 39
2019-07-24 08:00:00 18 3 Sur 12 Sudoeste 0 944.3 0.1 46
2019-07-24 07:00:00 16.1 3 Oeste 12 Oeste 0 944.2 -0.3 48
2019-07-24 06:00:00 16.9 2 Noroeste 10 Oeste 0 944 -0.7 42
2019-07-24 05:00:00 20 10 Oeste 18 Oeste 0 944.2 -0.7 33
2019-07-24 04:00:00 18.8 6 Oeste 12 Sudoeste 0 944.5 -0.4 39
2019-07-24 03:00:00 18.8 3 Noroeste 10 Oeste 0 944.7 -0.2 39
2019-07-24 02:00:00 21.3 7 Oeste 13 Oeste 0 944.9 0.1 34
2019-07-24 01:00:00 21.2 4 Noroeste 8 Noroeste 0 944.9 0.7 37
2019-07-24 00:00:00 22.7 5 Noroeste 10 Norte 0 944.9 1.2 33
2019-07-23 23:00:00 25 5 Noroeste 13 Nordeste 0 944.8 1.1 30
2019-07-23 22:00:00 27.6 4 Nordeste 16 Nordeste 0 944.2 0.6 26
2019-07-23 21:00:00 29.1 7 Nordeste 19 Este 0 943.7 -0.1 24
2019-07-23 20:00:00 31.9 8 Este 27 Este 0 943.7 -0.3 18
2019-07-23 19:00:00 33.1 16 Este 29 Este 0 943.6 -0.9 15
2019-07-23 18:00:00 34.2 18 Este 30 Este 0 943.8 -1.3 15
2019-07-23 17:00:00 35.5 16 Este 37 Este 0 944 -1.4 14
2019-07-23 16:00:00 35.5 17 Este 36 Nordeste 0 944.5 -1.3 14
2019-07-23 15:00:00 34.7 15 Este 32 Este 0 945.1 -1 14
2019-07-23 14:00:00 34 14 Nordeste 28 Nordeste 0 945.4 -0.7 13
2019-07-23 13:00:00 32.6 10 Nordeste 21 Este 0 945.8 -0.7 17
2019-07-23 12:00:00 32.1 7 Este 18 Este 0 946.1 -0.3 15
2019-07-23 11:00:00 30.4 7 Este 15 Este 0 946.1 -0.3 18
2019-07-23 10:00:00 27.8 8 Este 14 Nordeste 0 946.5 0.4 22
2019-07-23 09:00:00 22.2 2 Este 7 Sudoeste 0 946.4 0.2 38
2019-07-23 08:00:00 17.6 3 Sudoeste 14 Oeste 0 946.4 0.1 43
2019-07-23 07:00:00 15.7 3 Oeste 14 Oeste 0 946.1 -0.6 44
2019-07-23 06:00:00 16 3 Oeste 6 Sudoeste 0 946.2 -1 53
2019-07-23 05:00:00 17.5 0 Calma 10 Noroeste 0 946.3 -1.2 56
2019-07-23 04:00:00 19.2 4 Oeste 12 Sudoeste 0 946.7 -1.1 54
2019-07-23 03:00:00 20.1 5 Oeste 11 Noroeste 0 947.2 -0.6 55
2019-07-23 02:00:00 20.5 5 Noroeste 10 Noroeste 0 947.5 -0.3 52
2019-07-23 01:00:00 21.9 4 Norte 10 Noroeste 0 947.8 0.4 46
2019-07-23 00:00:00 22.5 5 Norte 14 Norte 0 947.8 0.7 43
2019-07-22 23:00:00 22.6 6 Norte 11 Norte 0 947.8 1 41
2019-07-22 22:00:00 24.3 4 Norte 13 Este 0 947.4 0.9 35
2019-07-22 21:00:00 27.8 8 Este 21 Nordeste 0 947.1 0.3 26
2019-07-22 20:00:00 29.8 10 Este 23 Este 0 946.8 -0.4 23
2019-07-22 19:00:00 31 14 Este 24 Este 0 946.5 -1 21
2019-07-22 18:00:00 32.5 13 Este 27 Este 0 946.8 -1.1 18
2019-07-22 17:00:00 33.4 14 Este 32 Este 0 947.2 -1.1 14
2019-07-22 16:00:00 34.1 17 Este 32 Este 0 947.5 -1.3 15
2019-07-22 15:00:00 33 15 Este 27 Este 0 947.9 -1.1 22
2019-07-22 14:00:00 32.6 14 Este 28 Este 0 948.3 -0.7 22
2019-07-22 13:00:00 31.4 13 Este 28 Nordeste 0 948.8 0 26
2019-07-22 12:00:00 29.5 6 Nordeste 16 Este 0 949 0.3 31
2019-07-22 11:00:00 28.6 6 Nordeste 14 Nordeste 0 949 0.7 32
2019-07-22 10:00:00 27.5 4 Este 8 Sudeste 0 948.8 0.8 33
2019-07-22 09:00:00 23.2 3 Sudeste 8 Sudoeste 0 948.7 0.9 46
2019-07-22 08:00:00 17.1 3 Oeste 8 Sudoeste 0 948.3 0.3 63
2019-07-22 07:00:00 16.4 3 Oeste 10 Oeste 0 948 -0.2 62
2019-07-22 06:00:00 17.1 5 Oeste 10 Oeste 0 947.8 -0.7 62
2019-07-22 05:00:00 17.6 3 Oeste 7 Oeste 0 948 -0.9 65
2019-07-22 04:00:00 18.4 3 Oeste 6 Noroeste 0 948.2 -1.2 62
2019-07-22 03:00:00 19.3 3 Oeste 6 Norte 0 948.5 -0.9 63
2019-07-22 02:00:00 20.7 4 Noroeste 9 Noroeste 0 948.9 -0.4 58
2019-07-22 01:00:00 20.6 4 Noroeste 7 Noroeste 0 949.4 1.4 57
2019-07-22 00:00:00 22.4 0 Calma 12 Nordeste 0 949.4 2.4 51
2019-07-21 23:00:00 23 3 Norte 8 Nordeste 0 949.3 3.1 49
2019-07-21 22:00:00 24.9 3 Este 15 Este 0 948 2.5 42
2019-07-21 21:00:00 27.5 9 Este 21 Sudeste 0 947 1 33
2019-07-21 20:00:00 29.5 10 Este 27 Este 0 946.2 0 28
2019-07-21 19:00:00 30.5 16 Este 29 Este 0 945.5 -0.8 27
2019-07-21 18:00:00 32.5 13 Este 29 Este 0 946 -0.7 21
2019-07-21 17:00:00 33.1 15 Este 32 Este 0 946.2 -0.8 20
2019-07-21 16:00:00 33.9 14 Este 28 Este 0 946.3 -0.8 18
2019-07-21 15:00:00 33.8 11 Este 27 Este 0 946.7 -0.1 23
2019-07-21 14:00:00 33.1 14 Este 31 Este 0 947 0.5 21
2019-07-21 13:00:00 31.6 13 Este 26 Este 0 947.1 0.4 24
2019-07-21 12:00:00 30.9 12 Este 22 Sudeste 0 946.8 0.5 25
2019-07-21 11:00:00 29.5 7 Nordeste 17 Nordeste 0 946.5 0.8 27
2019-07-21 10:00:00 26.9 5 Sudeste 9 Sudeste 0 946.7 1.3 33
2019-07-21 09:00:00 22.6 2 Sudeste 6 Oeste 0 946.3 1 46
2019-07-21 08:00:00 17.2 3 Sudoeste 9 Oeste 0 945.7 0.4 57
2019-07-21 07:00:00 16.2 3 Oeste 12 Oeste 0 945.4 -0.1 55
2019-07-21 06:00:00 16.5 4 Noroeste 12 Oeste 0 945.3 -0.3 55
2019-07-21 05:00:00 17.2 3 Oeste 14 Oeste 0 945.3 -0.8 58
2019-07-21 04:00:00 19.2 6 Oeste 14 Oeste 0 945.5 -0.8 51
2019-07-21 03:00:00 20 8 Oeste 11 Oeste 0 945.6 -0.5 62
2019-07-21 02:00:00 19.4 5 Noroeste 9 Noroeste 0 946.1 0.3 62
2019-07-21 01:00:00 20.3 3 Noroeste 7 Norte 0 946.3 1.4 61
2019-07-21 00:00:00 22.1 4 Norte 10 Norte 0 946.1 2.2 54